sensor_id;sensor_type;location;lat;lon;timestamp;P1;durP1;ratioP1;P2;durP2;ratioP2
19161;SDS011;9713;48.140;11.530;2024-01-06T00:00:43;11.83;;;8.03;;
19161;SDS011;9713;48.140;11.530;2024-01-06T00:04:27;13.30;;;7.73;;
19161;SDS011;9713;48.140;11.530;2024-01-06T00:08:10;11.97;;;7.57;;
19161;SDS011;9713;48.140;11.530;2024-01-06T00:11:54;12.67;;;7.67;;
19161;SDS011;9713;48.140;11.530;2024-01-06T00:15:37;15.97;;;9.17;;
19161;SDS011;9713;48.140;11.530;2024-01-06T00:19:20;14.37;;;8.80;;
19161;SDS011;9713;48.140;11.530;2024-01-06T00:23:03;15.40;;;8.53;;
19161;SDS011;9713;48.140;11.530;2024-01-06T00:26:46;14.83;;;8.53;;
19161;SDS011;9713;48.140;11.530;2024-01-06T00:30:31;14.93;;;8.33;;
19161;SDS011;9713;48.140;11.530;2024-01-06T00:34:14;13.27;;;8.03;;
19161;SDS011;9713;48.140;11.530;2024-01-06T00:37:57;13.00;;;8.20;;
19161;SDS011;9713;48.140;11.530;2024-01-06T00:41:42;14.10;;;8.33;;
19161;SDS011;9713;48.140;11.530;2024-01-06T00:45:25;17.93;;;10.80;;
19161;SDS011;9713;48.140;11.530;2024-01-06T00:49:09;17.87;;;10.27;;
19161;SDS011;9713;48.140;11.530;2024-01-06T00:52:52;17.33;;;10.23;;
19161;SDS011;9713;48.140;11.530;2024-01-06T00:56:35;15.43;;;9.43;;
19161;SDS011;9713;48.140;11.530;2024-01-06T01:00:18;15.70;;;9.63;;
19161;SDS011;9713;48.140;11.530;2024-01-06T01:04:01;16.00;;;9.43;;
19161;SDS011;9713;48.140;11.530;2024-01-06T01:07:45;10.97;;;7.10;;
19161;SDS011;9713;48.140;11.530;2024-01-06T01:11:28;9.33;;;6.03;;
19161;SDS011;9713;48.140;11.530;2024-01-06T01:15:11;8.10;;;5.37;;
19161;SDS011;9713;48.140;11.530;2024-01-06T01:18:54;8.57;;;4.97;;
19161;SDS011;9713;48.140;11.530;2024-01-06T01:22:37;5.67;;;3.90;;
19161;SDS011;9713;48.140;11.530;2024-01-06T01:26:22;5.37;;;3.40;;
19161;SDS011;9713;48.140;11.530;2024-01-06T01:30:05;5.67;;;3.27;;
19161;SDS011;9713;48.140;11.530;2024-01-06T01:33:49;5.83;;;3.50;;
19161;SDS011;9713;48.140;11.530;2024-01-06T01:37:32;6.47;;;3.47;;
19161;SDS011;9713;48.140;11.530;2024-01-06T01:41:15;5.63;;;3.53;;
19161;SDS011;9713;48.140;11.530;2024-01-06T01:44:59;5.60;;;3.73;;
19161;SDS011;9713;48.140;11.530;2024-01-06T01:48:42;5.30;;;3.37;;
19161;SDS011;9713;48.140;11.530;2024-01-06T01:52:26;6.53;;;3.60;;
19161;SDS011;9713;48.140;11.530;2024-01-06T01:56:09;5.43;;;3.63;;
19161;SDS011;9713;48.140;11.530;2024-01-06T01:59:52;4.63;;;3.17;;
19161;SDS011;9713;48.140;11.530;2024-01-06T02:03:36;5.57;;;2.97;;
19161;SDS011;9713;48.140;11.530;2024-01-06T02:07:19;4.50;;;2.30;;
19161;SDS011;9713;48.140;11.530;2024-01-06T02:11:03;3.27;;;1.87;;
19161;SDS011;9713;48.140;11.530;2024-01-06T02:14:46;2.70;;;1.57;;
19161;SDS011;9713;48.140;11.530;2024-01-06T02:18:29;1.97;;;1.40;;
19161;SDS011;9713;48.140;11.530;2024-01-06T02:22:15;1.80;;;1.23;;
19161;SDS011;9713;48.140;11.530;2024-01-06T02:25:58;4.33;;;2.67;;
19161;SDS011;9713;48.140;11.530;2024-01-06T02:29:41;4.20;;;2.90;;
19161;SDS011;9713;48.140;11.530;2024-01-06T02:33:24;4.97;;;2.60;;
19161;SDS011;9713;48.140;11.530;2024-01-06T02:37:07;4.70;;;3.20;;
19161;SDS011;9713;48.140;11.530;2024-01-06T02:40:51;4.87;;;3.47;;
19161;SDS011;9713;48.140;11.530;2024-01-06T02:44:34;4.60;;;3.37;;
19161;SDS011;9713;48.140;11.530;2024-01-06T02:48:17;6.07;;;3.40;;
19161;SDS011;9713;48.140;11.530;2024-01-06T02:52:00;5.90;;;3.70;;
19161;SDS011;9713;48.140;11.530;2024-01-06T02:55:43;5.67;;;3.60;;
19161;SDS011;9713;48.140;11.530;2024-01-06T02:59:27;6.83;;;4.40;;
19161;SDS011;9713;48.140;11.530;2024-01-06T03:03:11;7.07;;;4.20;;
19161;SDS011;9713;48.140;11.530;2024-01-06T03:06:54;7.90;;;3.97;;
19161;SDS011;9713;48.140;11.530;2024-01-06T03:10:37;7.67;;;4.07;;
19161;SDS011;9713;48.140;11.530;2024-01-06T03:14:20;6.97;;;4.07;;
19161;SDS011;9713;48.140;11.530;2024-01-06T03:18:04;6.30;;;3.47;;
19161;SDS011;9713;48.140;11.530;2024-01-06T03:21:48;4.70;;;3.50;;
19161;SDS011;9713;48.140;11.530;2024-01-06T03:25:31;3.67;;;2.60;;
19161;SDS011;9713;48.140;11.530;2024-01-06T03:29:14;4.17;;;2.53;;
19161;SDS011;9713;48.140;11.530;2024-01-06T03:32:57;3.67;;;2.17;;
19161;SDS011;9713;48.140;11.530;2024-01-06T03:36:41;3.47;;;2.10;;
19161;SDS011;9713;48.140;11.530;2024-01-06T03:40:24;3.03;;;2.13;;
19161;SDS011;9713;48.140;11.530;2024-01-06T03:44:07;4.87;;;2.70;;
19161;SDS011;9713;48.140;11.530;2024-01-06T03:47:50;5.23;;;3.10;;
19161;SDS011;9713;48.140;11.530;2024-01-06T03:51:33;4.33;;;3.00;;
19161;SDS011;9713;48.140;11.530;2024-01-06T03:55:17;4.07;;;2.70;;
19161;SDS011;9713;48.140;11.530;2024-01-06T03:59:00;3.83;;;2.60;;
19161;SDS011;9713;48.140;11.530;2024-01-06T04:02:43;5.00;;;2.77;;
19161;SDS011;9713;48.140;11.530;2024-01-06T04:06:26;5.90;;;3.30;;
19161;SDS011;9713;48.140;11.530;2024-01-06T04:10:09;4.73;;;3.57;;
19161;SDS011;9713;48.140;11.530;2024-01-06T04:13:54;5.40;;;3.70;;
19161;SDS011;9713;48.140;11.530;2024-01-06T04:17:37;3.90;;;2.70;;
19161;SDS011;9713;48.140;11.530;2024-01-06T04:21:19;4.73;;;2.70;;
19161;SDS011;9713;48.140;11.530;2024-01-06T04:25:04;3.40;;;2.17;;
19161;SDS011;9713;48.140;11.530;2024-01-06T04:28:47;4.07;;;2.13;;
19161;SDS011;9713;48.140;11.530;2024-01-06T04:32:31;3.93;;;2.50;;
19161;SDS011;9713;48.140;11.530;2024-01-06T04:36:14;2.90;;;2.13;;
19161;SDS011;9713;48.140;11.530;2024-01-06T04:39:58;2.07;;;1.40;;
19161;SDS011;9713;48.140;11.530;2024-01-06T04:43:41;2.63;;;1.10;;
19161;SDS011;9713;48.140;11.530;2024-01-06T04:47:25;1.77;;;1.20;;
19161;SDS011;9713;48.140;11.530;2024-01-06T04:51:10;1.43;;;0.97;;
19161;SDS011;9713;48.140;11.530;2024-01-06T04:54:53;1.50;;;0.90;;
19161;SDS011;9713;48.140;11.530;2024-01-06T04:58:36;1.60;;;1.10;;
19161;SDS011;9713;48.140;11.530;2024-01-06T05:02:19;1.53;;;1.00;;
19161;SDS011;9713;48.140;11.530;2024-01-06T05:06:02;2.53;;;0.80;;
19161;SDS011;9713;48.140;11.530;2024-01-06T05:09:47;1.00;;;0.80;;
19161;SDS011;9713;48.140;11.530;2024-01-06T05:13:30;1.00;;;0.70;;
19161;SDS011;9713;48.140;11.530;2024-01-06T05:17:13;1.00;;;0.80;;
19161;SDS011;9713;48.140;11.530;2024-01-06T05:20:56;1.27;;;0.80;;
19161;SDS011;9713;48.140;11.530;2024-01-06T05:24:39;0.97;;;0.80;;
19161;SDS011;9713;48.140;11.530;2024-01-06T05:28:25;1.93;;;0.70;;
19161;SDS011;9713;48.140;11.530;2024-01-06T05:32:08;1.63;;;0.80;;
19161;SDS011;9713;48.140;11.530;2024-01-06T05:35:51;1.13;;;0.80;;
19161;SDS011;9713;48.140;11.530;2024-01-06T05:39:34;1.47;;;0.87;;
19161;SDS011;9713;48.140;11.530;2024-01-06T05:43:20;0.60;;;0.60;;
19161;SDS011;9713;48.140;11.530;2024-01-06T05:47:04;0.97;;;0.70;;
19161;SDS011;9713;48.140;11.530;2024-01-06T05:50:47;1.07;;;0.90;;
19161;SDS011;9713;48.140;11.530;2024-01-06T05:54:30;1.97;;;1.10;;
19161;SDS011;9713;48.140;11.530;2024-01-06T05:58:13;1.37;;;1.00;;
19161;SDS011;9713;48.140;11.530;2024-01-06T06:01:56;2.13;;;1.30;;
19161;SDS011;9713;48.140;11.530;2024-01-06T06:05:40;1.87;;;1.30;;
19161;SDS011;9713;48.140;11.530;2024-01-06T06:09:23;3.83;;;1.30;;
19161;SDS011;9713;48.140;11.530;2024-01-06T06:13:06;1.83;;;0.90;;
19161;SDS011;9713;48.140;11.530;2024-01-06T06:16:52;1.07;;;0.87;;
19161;SDS011;9713;48.140;11.530;2024-01-06T06:20:35;0.80;;;0.70;;
19161;SDS011;9713;48.140;11.530;2024-01-06T06:24:19;2.17;;;1.00;;
19161;SDS011;9713;48.140;11.530;2024-01-06T06:28:02;1.00;;;0.80;;
19161;SDS011;9713;48.140;11.530;2024-01-06T06:31:45;1.57;;;1.47;;
19161;SDS011;9713;48.140;11.530;2024-01-06T06:35:28;2.17;;;1.70;;
19161;SDS011;9713;48.140;11.530;2024-01-06T06:39:11;3.13;;;1.90;;
19161;SDS011;9713;48.140;11.530;2024-01-06T06:42:56;2.60;;;1.90;;
19161;SDS011;9713;48.140;11.530;2024-01-06T06:46:39;4.23;;;1.90;;
19161;SDS011;9713;48.140;11.530;2024-01-06T06:50:22;2.67;;;2.00;;
19161;SDS011;9713;48.140;11.530;2024-01-06T06:54:05;4.43;;;2.37;;
19161;SDS011;9713;48.140;11.530;2024-01-06T06:57:48;4.03;;;2.37;;
19161;SDS011;9713;48.140;11.530;2024-01-06T07:01:32;3.30;;;2.20;;
19161;SDS011;9713;48.140;11.530;2024-01-06T07:05:15;3.40;;;2.07;;
19161;SDS011;9713;48.140;11.530;2024-01-06T07:08:59;3.60;;;2.60;;
19161;SDS011;9713;48.140;11.530;2024-01-06T07:12:42;3.43;;;2.63;;
19161;SDS011;9713;48.140;11.530;2024-01-06T07:16:25;4.93;;;2.73;;
19161;SDS011;9713;48.140;11.530;2024-01-06T07:20:10;6.83;;;2.50;;
19161;SDS011;9713;48.140;11.530;2024-01-06T07:23:53;4.10;;;2.63;;
19161;SDS011;9713;48.140;11.530;2024-01-06T07:27:36;4.50;;;2.67;;
19161;SDS011;9713;48.140;11.530;2024-01-06T07:31:19;4.13;;;2.53;;
19161;SDS011;9713;48.140;11.530;2024-01-06T07:35:02;4.73;;;2.57;;
19161;SDS011;9713;48.140;11.530;2024-01-06T07:38:50;5.03;;;2.37;;
19161;SDS011;9713;48.140;11.530;2024-01-06T07:42:33;4.93;;;2.43;;
19161;SDS011;9713;48.140;11.530;2024-01-06T07:46:16;6.73;;;2.70;;
19161;SDS011;9713;48.140;11.530;2024-01-06T07:50:01;3.87;;;2.70;;
19161;SDS011;9713;48.140;11.530;2024-01-06T07:53:46;6.23;;;3.00;;
19161;SDS011;9713;48.140;11.530;2024-01-06T07:57:30;4.13;;;2.80;;
19161;SDS011;9713;48.140;11.530;2024-01-06T08:01:13;5.63;;;3.50;;
19161;SDS011;9713;48.140;11.530;2024-01-06T08:04:57;4.67;;;3.37;;
19161;SDS011;9713;48.140;11.530;2024-01-06T08:08:40;5.37;;;2.97;;
19161;SDS011;9713;48.140;11.530;2024-01-06T08:12:22;5.70;;;2.63;;
19161;SDS011;9713;48.140;11.530;2024-01-06T08:16:07;5.03;;;2.70;;
19161;SDS011;9713;48.140;11.530;2024-01-06T08:19:50;5.80;;;2.67;;
19161;SDS011;9713;48.140;11.530;2024-01-06T08:23:33;4.30;;;2.50;;
19161;SDS011;9713;48.140;11.530;2024-01-06T08:27:16;3.93;;;2.10;;
19161;SDS011;9713;48.140;11.530;2024-01-06T08:30:59;5.23;;;2.33;;
19161;SDS011;9713;48.140;11.530;2024-01-06T08:34:44;6.60;;;2.77;;
19161;SDS011;9713;48.140;11.530;2024-01-06T08:38:27;4.10;;;1.80;;
19161;SDS011;9713;48.140;11.530;2024-01-06T08:42:10;5.17;;;2.07;;
19161;SDS011;9713;48.140;11.530;2024-01-06T08:45:53;4.50;;;2.13;;
19161;SDS011;9713;48.140;11.530;2024-01-06T08:49:36;4.57;;;2.03;;
19161;SDS011;9713;48.140;11.530;2024-01-06T08:53:21;4.83;;;2.10;;
19161;SDS011;9713;48.140;11.530;2024-01-06T08:57:04;5.97;;;2.80;;
19161;SDS011;9713;48.140;11.530;2024-01-06T09:00:48;5.20;;;2.00;;
19161;SDS011;9713;48.140;11.530;2024-01-06T09:04:31;4.73;;;2.07;;
19161;SDS011;9713;48.140;11.530;2024-01-06T09:08:17;3.80;;;1.93;;
19161;SDS011;9713;48.140;11.530;2024-01-06T09:12:02;4.40;;;2.00;;
19161;SDS011;9713;48.140;11.530;2024-01-06T09:15:45;5.97;;;2.13;;
19161;SDS011;9713;48.140;11.530;2024-01-06T09:19:28;6.90;;;2.73;;
19161;SDS011;9713;48.140;11.530;2024-01-06T09:23:12;5.67;;;3.27;;
19161;SDS011;9713;48.140;11.530;2024-01-06T09:26:55;8.10;;;3.20;;
19161;SDS011;9713;48.140;11.530;2024-01-06T09:30:42;5.20;;;2.63;;
19161;SDS011;9713;48.140;11.530;2024-01-06T09:34:25;4.20;;;2.30;;
19161;SDS011;9713;48.140;11.530;2024-01-06T09:38:08;5.33;;;2.87;;
19161;SDS011;9713;48.140;11.530;2024-01-06T09:41:51;5.83;;;2.70;;
19161;SDS011;9713;48.140;11.530;2024-01-06T09:45:37;4.37;;;2.67;;
19161;SDS011;9713;48.140;11.530;2024-01-06T09:49:23;6.50;;;2.77;;
19161;SDS011;9713;48.140;11.530;2024-01-06T09:53:06;8.27;;;2.77;;
19161;SDS011;9713;48.140;11.530;2024-01-06T09:56:49;5.93;;;2.70;;
19161;SDS011;9713;48.140;11.530;2024-01-06T10:00:32;5.70;;;2.57;;
19161;SDS011;9713;48.140;11.530;2024-01-06T10:04:15;5.73;;;2.70;;
19161;SDS011;9713;48.140;11.530;2024-01-06T10:08:05;5.97;;;2.40;;
19161;SDS011;9713;48.140;11.530;2024-01-06T10:11:48;8.77;;;3.07;;
19161;SDS011;9713;48.140;11.530;2024-01-06T10:15:33;4.17;;;2.70;;
19161;SDS011;9713;48.140;11.530;2024-01-06T10:19:18;6.53;;;3.33;;
19161;SDS011;9713;48.140;11.530;2024-01-06T10:23:05;6.43;;;3.20;;
19161;SDS011;9713;48.140;11.530;2024-01-06T10:26:48;5.77;;;3.07;;
19161;SDS011;9713;48.140;11.530;2024-01-06T10:30:32;5.80;;;3.27;;
19161;SDS011;9713;48.140;11.530;2024-01-06T10:34:15;7.60;;;3.20;;
19161;SDS011;9713;48.140;11.530;2024-01-06T10:37:58;7.27;;;3.50;;
19161;SDS011;9713;48.140;11.530;2024-01-06T10:41:43;8.73;;;3.27;;
19161;SDS011;9713;48.140;11.530;2024-01-06T10:45:26;5.00;;;2.90;;
19161;SDS011;9713;48.140;11.530;2024-01-06T10:49:11;5.87;;;2.90;;
19161;SDS011;9713;48.140;11.530;2024-01-06T10:52:55;6.73;;;3.20;;
19161;SDS011;9713;48.140;11.530;2024-01-06T10:56:39;6.60;;;3.07;;
19161;SDS011;9713;48.140;11.530;2024-01-06T11:00:23;6.33;;;2.80;;
19161;SDS011;9713;48.140;11.530;2024-01-06T11:04:07;7.13;;;3.10;;
19161;SDS011;9713;48.140;11.530;2024-01-06T11:07:51;7.57;;;3.43;;
19161;SDS011;9713;48.140;11.530;2024-01-06T11:11:41;5.57;;;3.27;;
19161;SDS011;9713;48.140;11.530;2024-01-06T11:15:43;7.13;;;3.50;;
19161;SDS011;9713;48.140;11.530;2024-01-06T11:19:42;6.90;;;3.33;;
19161;SDS011;9713;48.140;11.530;2024-01-06T11:23:27;7.13;;;3.53;;
19161;SDS011;9713;48.140;11.530;2024-01-06T11:27:10;8.83;;;3.63;;
19161;SDS011;9713;48.140;11.530;2024-01-06T11:31:08;9.07;;;3.87;;
19161;SDS011;9713;48.140;11.530;2024-01-06T11:34:51;10.70;;;3.87;;
19161;SDS011;9713;48.140;11.530;2024-01-06T11:38:39;7.13;;;3.50;;
19161;SDS011;9713;48.140;11.530;2024-01-06T11:42:24;7.40;;;3.90;;
19161;SDS011;9713;48.140;11.530;2024-01-06T11:46:16;7.70;;;3.77;;
19161;SDS011;9713;48.140;11.530;2024-01-06T11:50:00;9.37;;;4.27;;
19161;SDS011;9713;48.140;11.530;2024-01-06T11:53:45;8.63;;;4.33;;
19161;SDS011;9713;48.140;11.530;2024-01-06T11:57:29;9.43;;;4.10;;
19161;SDS011;9713;48.140;11.530;2024-01-06T12:01:12;11.43;;;4.73;;
19161;SDS011;9713;48.140;11.530;2024-01-06T12:04:57;11.47;;;5.07;;
19161;SDS011;9713;48.140;11.530;2024-01-06T12:08:40;9.07;;;5.30;;
19161;SDS011;9713;48.140;11.530;2024-01-06T12:12:24;9.17;;;5.10;;
19161;SDS011;9713;48.140;11.530;2024-01-06T12:16:08;11.93;;;5.40;;
19161;SDS011;9713;48.140;11.530;2024-01-06T12:19:54;20.63;;;9.07;;
19161;SDS011;9713;48.140;11.530;2024-01-06T12:23:40;18.10;;;9.07;;
19161;SDS011;9713;48.140;11.530;2024-01-06T12:27:24;14.97;;;6.40;;
19161;SDS011;9713;48.140;11.530;2024-01-06T12:31:08;12.77;;;6.47;;
19161;SDS011;9713;48.140;11.530;2024-01-06T12:34:53;15.47;;;6.50;;
19161;SDS011;9713;48.140;11.530;2024-01-06T12:38:37;12.97;;;6.07;;
19161;SDS011;9713;48.140;11.530;2024-01-06T12:42:21;17.57;;;7.17;;
19161;SDS011;9713;48.140;11.530;2024-01-06T12:46:05;20.23;;;8.47;;
19161;SDS011;9713;48.140;11.530;2024-01-06T12:49:48;11.37;;;6.30;;
19161;SDS011;9713;48.140;11.530;2024-01-06T12:53:32;13.90;;;6.77;;
19161;SDS011;9713;48.140;11.530;2024-01-06T12:57:15;8.83;;;5.33;;
19161;SDS011;9713;48.140;11.530;2024-01-06T13:00:59;12.57;;;6.27;;
19161;SDS011;9713;48.140;11.530;2024-01-06T13:04:44;14.07;;;5.20;;
19161;SDS011;9713;48.140;11.530;2024-01-06T13:08:27;10.10;;;4.63;;
19161;SDS011;9713;48.140;11.530;2024-01-06T13:12:10;7.43;;;3.87;;
19161;SDS011;9713;48.140;11.530;2024-01-06T13:15:53;7.80;;;3.80;;
19161;SDS011;9713;48.140;11.530;2024-01-06T13:19:38;10.70;;;3.53;;
19161;SDS011;9713;48.140;11.530;2024-01-06T13:23:21;6.57;;;3.30;;
19161;SDS011;9713;48.140;11.530;2024-01-06T13:27:04;9.63;;;4.50;;
19161;SDS011;9713;48.140;11.530;2024-01-06T13:30:47;8.93;;;3.70;;
19161;SDS011;9713;48.140;11.530;2024-01-06T13:34:31;14.00;;;5.13;;
19161;SDS011;9713;48.140;11.530;2024-01-06T13:38:15;7.97;;;4.00;;
19161;SDS011;9713;48.140;11.530;2024-01-06T13:41:58;12.60;;;4.70;;
19161;SDS011;9713;48.140;11.530;2024-01-06T13:45:42;7.47;;;4.50;;
19161;SDS011;9713;48.140;11.530;2024-01-06T13:49:26;12.50;;;4.73;;
19161;SDS011;9713;48.140;11.530;2024-01-06T13:53:09;11.83;;;5.10;;
19161;SDS011;9713;48.140;11.530;2024-01-06T13:56:54;12.77;;;5.10;;
19161;SDS011;9713;48.140;11.530;2024-01-06T14:00:37;8.50;;;4.97;;
19161;SDS011;9713;48.140;11.530;2024-01-06T14:04:20;12.70;;;5.57;;
19161;SDS011;9713;48.140;11.530;2024-01-06T14:08:06;9.57;;;5.10;;
19161;SDS011;9713;48.140;11.530;2024-01-06T14:11:48;16.60;;;5.83;;
19161;SDS011;9713;48.140;11.530;2024-01-06T14:15:34;10.60;;;5.00;;
19161;SDS011;9713;48.140;11.530;2024-01-06T14:19:17;11.60;;;5.63;;
19161;SDS011;9713;48.140;11.530;2024-01-06T14:23:00;11.77;;;5.27;;
19161;SDS011;9713;48.140;11.530;2024-01-06T14:26:43;13.70;;;5.30;;
19161;SDS011;9713;48.140;11.530;2024-01-06T14:30:26;9.80;;;5.03;;
19161;SDS011;9713;48.140;11.530;2024-01-06T14:34:12;11.53;;;5.73;;
19161;SDS011;9713;48.140;11.530;2024-01-06T14:37:55;11.43;;;5.50;;
19161;SDS011;9713;48.140;11.530;2024-01-06T14:41:38;10.23;;;5.53;;
19161;SDS011;9713;48.140;11.530;2024-01-06T14:45:22;10.67;;;5.37;;
19161;SDS011;9713;48.140;11.530;2024-01-06T14:49:07;10.40;;;5.70;;
19161;SDS011;9713;48.140;11.530;2024-01-06T14:52:51;8.87;;;5.63;;
19161;SDS011;9713;48.140;11.530;2024-01-06T14:56:37;11.00;;;5.57;;
19161;SDS011;9713;48.140;11.530;2024-01-06T15:00:21;8.00;;;5.33;;
19161;SDS011;9713;48.140;11.530;2024-01-06T15:04:04;10.17;;;5.60;;
19161;SDS011;9713;48.140;11.530;2024-01-06T15:07:47;18.53;;;9.73;;
19161;SDS011;9713;48.140;11.530;2024-01-06T15:11:31;11.63;;;7.33;;
19161;SDS011;9713;48.140;11.530;2024-01-06T15:15:16;11.23;;;7.33;;
19161;SDS011;9713;48.140;11.530;2024-01-06T15:19:00;10.83;;;6.53;;
19161;SDS011;9713;48.140;11.530;2024-01-06T15:22:43;10.60;;;6.33;;
19161;SDS011;9713;48.140;11.530;2024-01-06T15:26:26;9.03;;;5.40;;
19161;SDS011;9713;48.140;11.530;2024-01-06T15:30:11;9.80;;;5.20;;
19161;SDS011;9713;48.140;11.530;2024-01-06T15:33:54;10.40;;;5.50;;
19161;SDS011;9713;48.140;11.530;2024-01-06T15:37:41;10.60;;;5.87;;
19161;SDS011;9713;48.140;11.530;2024-01-06T15:41:24;10.13;;;6.33;;
19161;SDS011;9713;48.140;11.530;2024-01-06T15:45:07;9.93;;;5.93;;
19161;SDS011;9713;48.140;11.530;2024-01-06T15:48:54;11.10;;;6.57;;
19161;SDS011;9713;48.140;11.530;2024-01-06T15:52:37;9.90;;;6.53;;
19161;SDS011;9713;48.140;11.530;2024-01-06T15:56:21;11.07;;;7.00;;
19161;SDS011;9713;48.140;11.530;2024-01-06T16:00:05;14.07;;;8.70;;
19161;SDS011;9713;48.140;11.530;2024-01-06T16:03:49;10.17;;;7.07;;
19161;SDS011;9713;48.140;11.530;2024-01-06T16:07:35;9.87;;;6.50;;
19161;SDS011;9713;48.140;11.530;2024-01-06T16:11:18;11.87;;;7.93;;
19161;SDS011;9713;48.140;11.530;2024-01-06T16:15:01;12.43;;;8.07;;
19161;SDS011;9713;48.140;11.530;2024-01-06T16:18:44;14.00;;;8.93;;
19161;SDS011;9713;48.140;11.530;2024-01-06T16:22:27;14.03;;;8.43;;
19161;SDS011;9713;48.140;11.530;2024-01-06T16:26:13;13.60;;;8.83;;
19161;SDS011;9713;48.140;11.530;2024-01-06T16:29:56;14.73;;;8.50;;
19161;SDS011;9713;48.140;11.530;2024-01-06T16:33:39;16.00;;;8.97;;
19161;SDS011;9713;48.140;11.530;2024-01-06T16:37:23;14.43;;;9.67;;
19161;SDS011;9713;48.140;11.530;2024-01-06T16:41:06;17.83;;;9.63;;
19161;SDS011;9713;48.140;11.530;2024-01-06T16:44:50;13.83;;;8.57;;
19161;SDS011;9713;48.140;11.530;2024-01-06T16:48:35;16.63;;;10.10;;
19161;SDS011;9713;48.140;11.530;2024-01-06T16:52:18;18.87;;;10.73;;
19161;SDS011;9713;48.140;11.530;2024-01-06T16:56:02;19.17;;;11.50;;
19161;SDS011;9713;48.140;11.530;2024-01-06T16:59:45;17.43;;;10.80;;
19161;SDS011;9713;48.140;11.530;2024-01-06T17:03:30;17.23;;;10.40;;
19161;SDS011;9713;48.140;11.530;2024-01-06T17:07:13;17.10;;;10.17;;
19161;SDS011;9713;48.140;11.530;2024-01-06T17:10:56;16.73;;;10.63;;
19161;SDS011;9713;48.140;11.530;2024-01-06T17:14:39;18.03;;;10.33;;
19161;SDS011;9713;48.140;11.530;2024-01-06T17:18:23;17.07;;;10.83;;
19161;SDS011;9713;48.140;11.530;2024-01-06T17:22:07;15.20;;;10.23;;
19161;SDS011;9713;48.140;11.530;2024-01-06T17:25:51;18.97;;;11.23;;
19161;SDS011;9713;48.140;11.530;2024-01-06T17:29:35;17.90;;;10.57;;
19161;SDS011;9713;48.140;11.530;2024-01-06T17:33:18;20.37;;;11.80;;
19161;SDS011;9713;48.140;11.530;2024-01-06T17:37:01;19.13;;;10.80;;
19161;SDS011;9713;48.140;11.530;2024-01-06T17:40:46;18.17;;;11.13;;
19161;SDS011;9713;48.140;11.530;2024-01-06T17:44:29;18.37;;;10.83;;
19161;SDS011;9713;48.140;11.530;2024-01-06T17:48:13;17.87;;;11.03;;
19161;SDS011;9713;48.140;11.530;2024-01-06T17:51:56;18.90;;;10.60;;
19161;SDS011;9713;48.140;11.530;2024-01-06T17:55:40;18.60;;;10.60;;
19161;SDS011;9713;48.140;11.530;2024-01-06T17:59:25;17.30;;;10.80;;
19161;SDS011;9713;48.140;11.530;2024-01-06T18:03:08;18.67;;;11.10;;
19161;SDS011;9713;48.140;11.530;2024-01-06T18:06:52;23.13;;;13.50;;
19161;SDS011;9713;48.140;11.530;2024-01-06T18:10:35;17.53;;;11.47;;
19161;SDS011;9713;48.140;11.530;2024-01-06T18:14:19;19.00;;;11.10;;
19161;SDS011;9713;48.140;11.530;2024-01-06T18:18:03;20.83;;;12.13;;
19161;SDS011;9713;48.140;11.530;2024-01-06T18:21:47;19.10;;;11.60;;
19161;SDS011;9713;48.140;11.530;2024-01-06T18:25:32;20.33;;;12.17;;
19161;SDS011;9713;48.140;11.530;2024-01-06T18:29:15;21.47;;;12.50;;
19161;SDS011;9713;48.140;11.530;2024-01-06T18:32:59;19.03;;;11.40;;
19161;SDS011;9713;48.140;11.530;2024-01-06T18:36:44;19.03;;;11.27;;
19161;SDS011;9713;48.140;11.530;2024-01-06T18:40:28;20.63;;;11.30;;
19161;SDS011;9713;48.140;11.530;2024-01-06T18:44:12;20.40;;;11.63;;
19161;SDS011;9713;48.140;11.530;2024-01-06T18:47:56;18.40;;;11.37;;
19161;SDS011;9713;48.140;11.530;2024-01-06T18:51:39;19.10;;;10.93;;
19161;SDS011;9713;48.140;11.530;2024-01-06T18:55:24;19.10;;;10.77;;
19161;SDS011;9713;48.140;11.530;2024-01-06T18:59:10;22.10;;;12.43;;
19161;SDS011;9713;48.140;11.530;2024-01-06T19:02:53;20.80;;;11.23;;
19161;SDS011;9713;48.140;11.530;2024-01-06T19:06:36;21.40;;;12.63;;
19161;SDS011;9713;48.140;11.530;2024-01-06T19:10:19;24.73;;;11.77;;
19161;SDS011;9713;48.140;11.530;2024-01-06T19:14:04;22.07;;;12.53;;
19161;SDS011;9713;48.140;11.530;2024-01-06T19:17:47;23.33;;;12.23;;
19161;SDS011;9713;48.140;11.530;2024-01-06T19:21:30;21.63;;;12.20;;
19161;SDS011;9713;48.140;11.530;2024-01-06T19:25:13;26.47;;;14.27;;
19161;SDS011;9713;48.140;11.530;2024-01-06T19:29:10;24.10;;;13.87;;
19161;SDS011;9713;48.140;11.530;2024-01-06T19:32:54;25.43;;;13.57;;
19161;SDS011;9713;48.140;11.530;2024-01-06T19:36:37;25.77;;;13.97;;
19161;SDS011;9713;48.140;11.530;2024-01-06T19:40:24;25.57;;;14.07;;
19161;SDS011;9713;48.140;11.530;2024-01-06T19:44:07;24.10;;;13.40;;
19161;SDS011;9713;48.140;11.530;2024-01-06T19:47:52;23.20;;;12.63;;
19161;SDS011;9713;48.140;11.530;2024-01-06T19:51:35;22.70;;;12.83;;
19161;SDS011;9713;48.140;11.530;2024-01-06T19:55:19;22.47;;;12.33;;
19161;SDS011;9713;48.140;11.530;2024-01-06T19:59:05;23.83;;;13.93;;
19161;SDS011;9713;48.140;11.530;2024-01-06T20:02:48;23.73;;;14.03;;
19161;SDS011;9713;48.140;11.530;2024-01-06T20:06:36;24.37;;;13.67;;
19161;SDS011;9713;48.140;11.530;2024-01-06T20:10:19;24.10;;;13.70;;
19161;SDS011;9713;48.140;11.530;2024-01-06T20:14:06;24.57;;;14.17;;
19161;SDS011;9713;48.140;11.530;2024-01-06T20:17:50;22.63;;;13.10;;
19161;SDS011;9713;48.140;11.530;2024-01-06T20:21:33;23.83;;;13.27;;
19161;SDS011;9713;48.140;11.530;2024-01-06T20:25:17;22.47;;;12.60;;
19161;SDS011;9713;48.140;11.530;2024-01-06T20:29:00;30.97;;;14.70;;
19161;SDS011;9713;48.140;11.530;2024-01-06T20:32:44;21.93;;;11.57;;
19161;SDS011;9713;48.140;11.530;2024-01-06T20:36:27;20.27;;;11.03;;
19161;SDS011;9713;48.140;11.530;2024-01-06T20:40:11;20.03;;;11.30;;
19161;SDS011;9713;48.140;11.530;2024-01-06T20:43:55;20.93;;;11.13;;
19161;SDS011;9713;48.140;11.530;2024-01-06T20:47:40;19.87;;;11.23;;
19161;SDS011;9713;48.140;11.530;2024-01-06T20:51:23;19.73;;;10.93;;
19161;SDS011;9713;48.140;11.530;2024-01-06T20:55:06;18.73;;;11.10;;
19161;SDS011;9713;48.140;11.530;2024-01-06T20:58:50;21.13;;;11.73;;
19161;SDS011;9713;48.140;11.530;2024-01-06T21:02:35;20.47;;;11.00;;
19161;SDS011;9713;48.140;11.530;2024-01-06T21:06:18;19.83;;;11.37;;
19161;SDS011;9713;48.140;11.530;2024-01-06T21:10:01;19.83;;;11.97;;
19161;SDS011;9713;48.140;11.530;2024-01-06T21:13:46;21.03;;;11.43;;
19161;SDS011;9713;48.140;11.530;2024-01-06T21:17:29;20.40;;;11.40;;
19161;SDS011;9713;48.140;11.530;2024-01-06T21:21:14;21.33;;;11.40;;
19161;SDS011;9713;48.140;11.530;2024-01-06T21:25:00;21.43;;;11.67;;
19161;SDS011;9713;48.140;11.530;2024-01-06T21:28:44;22.23;;;11.50;;
19161;SDS011;9713;48.140;11.530;2024-01-06T21:32:29;21.20;;;11.40;;
19161;SDS011;9713;48.140;11.530;2024-01-06T21:36:12;21.17;;;11.13;;
19161;SDS011;9713;48.140;11.530;2024-01-06T21:39:57;18.37;;;10.27;;
19161;SDS011;9713;48.140;11.530;2024-01-06T21:43:46;18.50;;;10.40;;
19161;SDS011;9713;48.140;11.530;2024-01-06T21:47:29;17.67;;;10.07;;
19161;SDS011;9713;48.140;11.530;2024-01-06T21:51:12;19.53;;;10.53;;
19161;SDS011;9713;48.140;11.530;2024-01-06T21:54:58;16.77;;;9.93;;
19161;SDS011;9713;48.140;11.530;2024-01-06T21:58:42;17.57;;;9.60;;
19161;SDS011;9713;48.140;11.530;2024-01-06T22:02:25;17.60;;;9.90;;
19161;SDS011;9713;48.140;11.530;2024-01-06T22:06:08;21.20;;;11.20;;
19161;SDS011;9713;48.140;11.530;2024-01-06T22:09:52;16.90;;;9.90;;
19161;SDS011;9713;48.140;11.530;2024-01-06T22:13:35;17.33;;;9.50;;